Time;durP1;ratioP1;P1;durP2;ratioP2;P2;SDS_P1;SDS_P2;PMS_P1;PMS_P2;Temp;Humidity;BMP_temperature;BMP_pressure;BME280_temperature;BME280_humidity;BME280_pressure;Samples;Min_cycle;Max_cycle;Signal;HPM_P1;HPM_P2
2022/11/13 00:01:07;;;;;;;;;;;18.60;99.90;;;;;;5072764;28;19951;-65
2022/11/13 00:03:52;;;;;;;;;;;18.60;99.90;;;;;;5072044;28;19936;-64
2022/11/13 00:06:38;;;;;;;;;;;18.60;99.90;;;;;;5069627;28;19939;-67
2022/11/13 00:09:23;;;;;;;;;;;18.60;99.90;;;;;;5069121;28;19935;-64
2022/11/13 00:12:09;;;;;;;;;;;18.60;99.90;;;;;;5068565;28;19935;-66
2022/11/13 00:14:54;;;;;;;;;;;18.50;99.90;;;;;;5062982;28;19936;-66
2022/11/13 00:17:40;;;;;;;;;;;18.60;99.90;;;;;;5066963;28;19951;-66
2022/11/13 00:20:25;;;;;;;;;;;18.50;99.90;;;;;;5071535;28;19936;-67
2022/11/13 00:23:11;;;;;;;;;;;18.50;99.90;;;;;;5089628;28;19935;-63
2022/11/13 00:26:02;;;;;;;;;;;18.50;99.90;;;;;;5081618;28;19939;-68
2022/11/13 00:28:51;;;;;;;;;;;18.50;99.90;;;;;;5082391;28;19949;-67
2022/11/13 00:31:37;;;;;;;;;;;18.50;99.90;;;;;;5083017;28;19939;-64
2022/11/13 00:34:22;;;;;;;;;;;18.50;99.90;;;;;;5072471;28;19936;-66
2022/11/13 00:37:28;;;;;;;;;;;18.50;99.90;;;;;;5075992;28;19998;-65
2022/11/13 00:40:13;;;;;;;;;;;18.50;99.90;;;;;;5090820;28;19936;-67
2022/11/13 00:42:59;;;;;;;;;;;18.40;99.90;;;;;;5089353;28;19935;-66
2022/11/13 00:45:44;;;;;;;;;;;18.40;99.90;;;;;;5078784;28;20442;-62
2022/11/13 00:48:30;;;;;;;;;;;18.40;99.90;;;;;;5081288;28;19943;-64
2022/11/13 00:51:15;;;;;;;;;;;18.40;99.90;;;;;;5085205;28;20304;-64
2022/11/13 00:54:01;;;;;;;;;;;18.40;99.90;;;;;;5074736;28;19931;-65
2022/11/13 00:56:46;;;;;;;;;;;18.40;99.90;;;;;;5070397;28;19935;-66
2022/11/13 00:59:32;;;;;;;;;;;18.40;99.90;;;;;;5073295;28;19935;-63
2022/11/13 01:02:18;;;;;;;;;;;18.40;99.90;;;;;;5070448;28;19935;-65
2022/11/13 01:05:03;;;;;;;;;;;18.40;99.90;;;;;;5068308;28;20378;-66
2022/11/13 01:07:49;;;;;;;;;;;18.40;99.90;;;;;;5066442;28;19935;-66
2022/11/13 01:10:37;;;;;;;;;;;18.30;99.90;;;;;;5063238;28;20336;-66
2022/11/13 01:13:23;;;;;;;;;;;18.30;99.90;;;;;;5072056;28;19935;-65
2022/11/13 01:16:09;;;;;;;;;;;18.30;99.90;;;;;;5063508;28;19936;-66
2022/11/13 01:18:55;;;;;;;;;;;18.30;99.90;;;;;;5069401;28;19932;-66
2022/11/13 01:21:41;;;;;;;;;;;18.30;99.90;;;;;;5068579;28;19936;-66
2022/11/13 01:24:26;;;;;;;;;;;18.30;99.90;;;;;;5073208;28;19935;-67
2022/11/13 01:27:14;;;;;;;;;;;18.30;99.90;;;;;;5068802;28;19931;-67
2022/11/13 01:29:59;;;;;;;;;;;18.30;99.90;;;;;;5063781;28;19936;-66
2022/11/13 01:32:45;;;;;;;;;;;18.30;99.90;;;;;;5066443;28;19935;-64
2022/11/13 01:35:30;;;;;;;;;;;18.30;99.90;;;;;;5070853;28;20303;-66
2022/11/13 01:38:16;;;;;;;;;;;18.30;99.90;;;;;;5062685;28;19932;-65
2022/11/13 01:41:01;;;;;;;;;;;18.20;99.90;;;;;;5070866;28;19940;-66
2022/11/13 01:43:47;;;;;;;;;;;18.20;99.90;;;;;;5072442;28;20422;-65
2022/11/13 01:46:34;;;;;;;;;;;18.20;99.90;;;;;;5075311;28;19947;-66
2022/11/13 01:49:28;;;;;;;;;;;18.20;99.90;;;;;;5073077;28;19935;-66
2022/11/13 01:52:18;;;;;;;;;;;18.20;99.90;;;;;;5070691;28;20007;-62
2022/11/13 01:55:07;;;;;;;;;;;18.20;99.90;;;;;;5066982;28;19931;-63
2022/11/13 01:57:52;;;;;;;;;;;18.20;99.90;;;;;;5065001;28;20498;-65
2022/11/13 02:00:37;;;;;;;;;;;18.20;99.90;;;;;;5066504;28;19944;-65
2022/11/13 02:03:23;;;;;;;;;;;18.20;99.90;;;;;;5072613;28;19936;-66
2022/11/13 02:06:08;;;;;;;;;;;18.10;99.90;;;;;;5065817;28;19939;-66
2022/11/13 02:08:54;;;;;;;;;;;18.10;99.90;;;;;;5073921;28;19936;-63
2022/11/13 02:11:40;;;;;;;;;;;18.10;99.90;;;;;;5064945;28;19947;-65
2022/11/13 02:14:27;;;;;;;;;;;18.10;99.90;;;;;;5073548;28;20242;-65
2022/11/13 02:17:20;;;;;;;;;;;18.10;99.90;;;;;;5057430;28;19932;-64
2022/11/13 02:20:07;;;;;;;;;;;18.10;99.90;;;;;;5073361;28;19936;-65
2022/11/13 02:22:58;;;;;;;;;;;18.10;99.90;;;;;;5067254;28;19935;-64
2022/11/13 02:25:46;;;;;;;;;;;18.10;99.90;;;;;;5064689;28;19936;-65
2022/11/13 02:28:32;;;;;;;;;;;18.10;99.90;;;;;;5066879;28;20795;-63
2022/11/13 02:31:17;;;;;;;;;;;18.10;99.90;;;;;;5063222;28;19940;-63
2022/11/13 02:34:03;;;;;;;;;;;18.10;99.90;;;;;;5072589;28;20467;-65
2022/11/13 02:36:48;;;;;;;;;;;18.10;99.90;;;;;;5064073;28;19931;-66
2022/11/13 02:39:34;;;;;;;;;;;18.10;99.90;;;;;;5078921;28;19935;-63
2022/11/13 02:42:19;;;;;;;;;;;18.10;99.90;;;;;;5073641;28;19935;-66
2022/11/13 02:45:06;;;;;;;;;;;18.10;99.90;;;;;;5068920;28;19932;-65
2022/11/13 02:47:51;;;;;;;;;;;18.00;99.90;;;;;;5078415;28;19947;-66
2022/11/13 02:50:37;;;;;;;;;;;18.00;99.90;;;;;;5079274;28;19936;-65
2022/11/13 02:53:22;;;;;;;;;;;18.00;99.90;;;;;;5069992;28;20411;-66
2022/11/13 02:56:08;;;;;;;;;;;18.00;99.90;;;;;;5074193;28;19940;-66
2022/11/13 02:58:53;;;;;;;;;;;18.00;99.90;;;;;;5080847;28;20198;-65
2022/11/13 03:01:39;;;;;;;;;;;18.00;99.90;;;;;;5069266;28;19940;-68
2022/11/13 03:04:25;;;;;;;;;;;18.00;99.90;;;;;;5070712;28;20494;-68
2022/11/13 03:07:31;;;;;;;;;;;18.00;99.90;;;;;;5071542;28;19940;-64
2022/11/13 03:10:16;;;;;;;;;;;17.90;99.90;;;;;;5072800;28;20331;-64
2022/11/13 03:13:02;;;;;;;;;;;18.00;99.90;;;;;;5074988;28;19935;-64
2022/11/13 03:15:47;;;;;;;;;;;17.90;99.90;;;;;;5071493;28;20426;-63
2022/11/13 03:18:33;;;;;;;;;;;17.90;99.90;;;;;;5070838;28;19932;-66
2022/11/13 03:21:19;;;;;;;;;;;17.90;99.90;;;;;;5077041;28;20315;-66
2022/11/13 03:24:04;;;;;;;;;;;17.90;99.90;;;;;;5071957;28;19951;-67
2022/11/13 03:26:49;;;;;;;;;;;17.90;99.90;;;;;;5057929;28;19940;-67
2022/11/13 03:29:35;;;;;;;;;;;17.90;99.90;;;;;;5065400;28;19934;-66
2022/11/13 03:32:20;;;;;;;;;;;17.90;99.90;;;;;;5058686;28;19931;-64
2022/11/13 03:35:06;;;;;;;;;;;17.90;99.90;;;;;;5065358;28;19939;-65
2022/11/13 03:37:52;;;;;;;;;;;17.90;99.90;;;;;;5067764;28;19935;-64
2022/11/13 03:40:37;;;;;;;;;;;17.90;99.90;;;;;;5070320;28;19943;-65
2022/11/13 03:43:23;;;;;;;;;;;17.90;99.90;;;;;;5076224;28;19936;-64
2022/11/13 03:46:09;;;;;;;;;;;17.90;99.90;;;;;;5068296;28;20114;-66
2022/11/13 03:48:54;;;;;;;;;;;17.90;99.90;;;;;;5072817;28;19936;-66
2022/11/13 03:51:40;;;;;;;;;;;17.90;99.90;;;;;;5058770;28;19932;-66
2022/11/13 03:54:25;;;;;;;;;;;17.90;99.90;;;;;;5087301;28;19935;-64
2022/11/13 03:57:11;;;;;;;;;;;17.90;99.90;;;;;;5086099;28;19935;-65
2022/11/13 03:59:56;;;;;;;;;;;17.90;99.90;;;;;;5082298;28;19931;-65
2022/11/13 04:02:42;;;;;;;;;;;17.90;99.90;;;;;;5072574;28;19935;-65
2022/11/13 04:05:27;;;;;;;;;;;17.80;99.90;;;;;;5073087;28;19940;-62
2022/11/13 04:08:13;;;;;;;;;;;17.80;99.90;;;;;;5071642;28;20256;-63
2022/11/13 04:11:08;;;;;;;;;;;17.80;99.90;;;;;;5073225;28;19955;-65
2022/11/13 04:13:54;;;;;;;;;;;17.80;99.90;;;;;;5077066;28;19943;-65
2022/11/13 04:16:39;;;;;;;;;;;17.80;99.90;;;;;;5068267;28;19955;-65
2022/11/13 04:19:25;;;;;;;;;;;17.80;99.90;;;;;;5076395;28;19947;-66
2022/11/13 04:22:10;;;;;;;;;;;17.80;99.90;;;;;;5073909;28;19971;-65
2022/11/13 04:24:56;;;;;;;;;;;17.80;99.90;;;;;;5069307;28;19935;-65
2022/11/13 04:27:41;;;;;;;;;;;17.80;99.90;;;;;;5065479;28;19931;-65
2022/11/13 04:30:27;;;;;;;;;;;17.80;99.90;;;;;;5070524;28;19940;-64
2022/11/13 04:33:13;;;;;;;;;;;17.70;99.90;;;;;;5068521;28;19935;-64
2022/11/13 04:35:58;;;;;;;;;;;17.70;99.90;;;;;;5057383;28;19940;-65
2022/11/13 04:38:44;;;;;;;;;;;17.70;99.90;;;;;;5068558;28;19944;-68
2022/11/13 04:44:40;;;;;;;;;;;17.70;99.90;;;;;;5066072;28;20399;-66
2022/11/13 04:47:25;;;;;;;;;;;17.70;99.90;;;;;;5068312;28;19931;-65
2022/11/13 04:50:12;;;;;;;;;;;17.70;99.90;;;;;;5075038;28;19947;-65
2022/11/13 04:52:57;;;;;;;;;;;17.70;99.90;;;;;;5071429;28;19932;-64
2022/11/13 04:55:43;;;;;;;;;;;17.80;99.90;;;;;;5063604;28;19931;-65
2022/11/13 04:58:28;;;;;;;;;;;17.90;99.90;;;;;;5075773;28;20311;-65
2022/11/13 05:01:15;;;;;;;;;;;18.00;99.90;;;;;;5072817;28;20387;-65
2022/11/13 05:04:00;;;;;;;;;;;18.10;99.90;;;;;;5075096;28;19935;-62
2022/11/13 05:06:46;;;;;;;;;;;18.30;99.90;;;;;;5069230;28;19935;-64
2022/11/13 05:09:31;;;;;;;;;;;18.40;99.90;;;;;;5068616;28;20228;-66
2022/11/13 05:12:17;;;;;;;;;;;18.60;99.90;;;;;;5075985;28;19935;-65
2022/11/13 05:15:03;;;;;;;;;;;18.70;99.90;;;;;;5069908;28;19931;-66
2022/11/13 05:17:49;;;;;;;;;;;18.80;99.90;;;;;;5078478;28;19935;-66
2022/11/13 05:20:34;;;;;;;;;;;18.90;99.90;;;;;;5069723;28;19943;-66
2022/11/13 05:23:20;;;;;;;;;;;18.90;99.90;;;;;;5077398;28;19939;-66
2022/11/13 05:26:09;;;;;;;;;;;18.90;99.90;;;;;;5071530;28;19931;-67
2022/11/13 05:28:56;;;;;;;;;;;18.90;99.90;;;;;;5071268;28;19935;-65
2022/11/13 05:31:41;;;;;;;;;;;18.90;99.90;;;;;;5071862;28;20002;-66
2022/11/13 05:34:27;;;;;;;;;;;18.90;99.90;;;;;;5075079;28;20659;-64
2022/11/13 05:37:12;;;;;;;;;;;18.90;99.90;;;;;;5070972;28;20306;-64
2022/11/13 05:39:58;;;;;;;;;;;18.90;99.90;;;;;;5070691;28;19939;-63
2022/11/13 05:42:43;;;;;;;;;;;18.90;99.90;;;;;;5071975;28;19935;-66
2022/11/13 05:45:29;;;;;;;;;;;18.90;99.90;;;;;;5069315;28;20363;-66
2022/11/13 05:48:14;;;;;;;;;;;18.90;99.90;;;;;;5072390;28;19951;-66
2022/11/13 05:51:08;;;;;;;;;;;18.90;99.90;;;;;;5071238;28;19943;-65
2022/11/13 05:53:54;;;;;;;;;;;18.90;99.90;;;;;;5066038;28;19939;-65
2022/11/13 05:56:39;;;;;;;;;;;18.90;99.90;;;;;;5067727;28;19935;-65
2022/11/13 05:59:25;;;;;;;;;;;18.80;99.90;;;;;;5076810;28;20411;-61
2022/11/13 06:02:10;;;;;;;;;;;18.90;99.90;;;;;;5072132;28;19924;-61
2022/11/13 06:04:56;;;;;;;;;;;18.80;99.90;;;;;;5067040;28;19935;-64
2022/11/13 06:07:41;;;;;;;;;;;18.80;99.90;;;;;;5070438;28;19939;-67
2022/11/13 06:10:27;;;;;;;;;;;18.90;99.90;;;;;;5070795;28;19936;-66
2022/11/13 06:13:12;;;;;;;;;;;18.90;99.90;;;;;;5072524;28;20309;-65
2022/11/13 06:16:02;;;;;;;;;;;18.90;99.90;;;;;;5066417;28;20414;-65
2022/11/13 06:18:48;;;;;;;;;;;19.00;99.90;;;;;;5064625;28;20403;-65
2022/11/13 06:21:36;;;;;;;;;;;19.10;99.90;;;;;;5063896;28;19935;-65
2022/11/13 06:24:22;;;;;;;;;;;19.20;99.90;;;;;;5069339;28;19931;-67
2022/11/13 06:27:07;;;;;;;;;;;19.30;99.90;;;;;;5067297;28;19936;-68
2022/11/13 06:29:53;;;;;;;;;;;19.30;99.90;;;;;;5068216;28;19935;-65
2022/11/13 06:32:38;;;;;;;;;;;19.40;99.90;;;;;;5071147;28;19936;-66
2022/11/13 06:35:24;;;;;;;;;;;19.40;99.90;;;;;;5069922;28;19935;-66
2022/11/13 06:38:09;;;;;;;;;;;19.50;99.90;;;;;;5074233;28;20315;-64
2022/11/13 06:40:55;;;;;;;;;;;19.60;99.90;;;;;;5068001;28;19936;-62
2022/11/13 06:43:41;;;;;;;;;;;19.70;99.90;;;;;;5072499;28;20414;-64
2022/11/13 06:46:28;;;;;;;;;;;19.80;99.90;;;;;;5075631;28;19935;-65
2022/11/13 06:49:13;;;;;;;;;;;19.80;99.90;;;;;;5075607;28;20011;-62
2022/11/13 06:51:59;;;;;;;;;;;19.90;99.90;;;;;;5076937;28;19935;-67
2022/11/13 06:54:44;;;;;;;;;;;19.90;99.90;;;;;;5066753;28;21664;-62
2022/11/13 06:57:30;;;;;;;;;;;19.20;99.90;;;;;;5077380;28;19936;-65
2022/11/13 07:00:15;;;;;;;;;;;17.70;99.90;;;;;;5068284;28;19932;-64
2022/11/13 07:03:01;;;;;;;;;;;17.60;99.90;;;;;;5057688;28;19936;-63
2022/11/13 07:05:47;;;;;;;;;;;18.20;99.90;;;;;;5070382;28;19932;-65
2022/11/13 07:08:32;;;;;;;;;;;18.70;99.90;;;;;;5076546;28;19940;-65
2022/11/13 07:11:19;;;;;;;;;;;19.10;99.90;;;;;;5074878;28;19961;-65
2022/11/13 07:14:05;;;;;;;;;;;19.20;99.90;;;;;;5067861;28;20414;-67
2022/11/13 07:16:51;;;;;;;;;;;19.30;99.90;;;;;;5071423;28;19931;-65
2022/11/13 07:19:55;;;;;;;;;;;19.30;99.90;;;;;;5042200;28;20315;-65
2022/11/13 07:22:41;;;;;;;;;;;19.30;99.90;;;;;;5049654;28;19936;-67
2022/11/13 07:25:27;;;;;;;;;;;19.30;99.90;;;;;;5058587;28;19939;-63
2022/11/13 07:28:12;;;;;;;;;;;19.30;99.90;;;;;;5059684;28;19933;-67
2022/11/13 07:30:58;;;;;;;;;;;19.30;99.90;;;;;;5064971;28;20525;-63
2022/11/13 07:33:46;;;;;;;;;;;19.30;99.90;;;;;;5063665;28;19936;-64
2022/11/13 07:36:31;;;;;;;;;;;19.30;99.90;;;;;;5066559;28;19973;-66
2022/11/13 07:39:17;;;;;;;;;;;19.40;99.90;;;;;;5066708;28;19935;-65
2022/11/13 07:42:02;;;;;;;;;;;19.40;99.90;;;;;;5066987;28;19952;-68
2022/11/13 07:44:48;;;;;;;;;;;19.50;99.90;;;;;;5060117;28;19935;-69
2022/11/13 07:47:40;;;;;;;;;;;19.50;99.90;;;;;;5069361;28;19935;-67
2022/11/13 07:50:30;;;;;;;;;;;19.60;99.90;;;;;;5065575;28;19940;-66
2022/11/13 07:53:16;;;;;;;;;;;19.60;99.90;;;;;;5071668;28;19948;-66
2022/11/13 07:56:02;;;;;;;;;;;19.60;99.90;;;;;;5070483;28;19940;-65
2022/11/13 07:58:48;;;;;;;;;;;19.60;99.90;;;;;;5075591;28;19935;-68
2022/11/13 08:01:34;;;;;;;;;;;19.60;99.90;;;;;;5079203;28;19961;-65
2022/11/13 08:04:19;;;;;;;;;;;19.70;99.90;;;;;;5078184;28;19970;-69
2022/11/13 08:07:05;;;;;;;;;;;19.70;99.90;;;;;;5071358;28;20320;-67
2022/11/13 08:09:50;;;;;;;;;;;19.70;99.90;;;;;;5076713;28;19940;-65
2022/11/13 08:12:36;;;;;;;;;;;19.60;99.90;;;;;;5075008;28;19931;-69
2022/11/13 08:15:21;;;;;;;;;;;19.60;99.90;;;;;;5069499;28;19931;-66
2022/11/13 08:18:07;;;;;;;;;;;19.50;99.90;;;;;;5068995;28;20402;-65
2022/11/13 08:20:52;;;;;;;;;;;19.50;99.90;;;;;;5069193;28;19944;-65
2022/11/13 08:23:39;;;;;;;;;;;19.50;99.90;;;;;;5070773;28;20403;-65
2022/11/13 08:26:25;;;;;;;;;;;19.50;99.90;;;;;;5056694;28;19935;-68
2022/11/13 08:29:11;;;;;;;;;;;19.50;99.90;;;;;;5070716;28;19936;-67
2022/11/13 08:31:56;;;;;;;;;;;19.40;99.90;;;;;;5073275;28;19931;-66
2022/11/13 08:34:42;;;;;;;;;;;19.30;99.90;;;;;;5067517;28;19935;-67
2022/11/13 08:37:27;;;;;;;;;;;19.30;99.90;;;;;;5069096;28;19955;-65
2022/11/13 08:40:13;;;;;;;;;;;19.20;99.90;;;;;;5069419;28;19951;-66
2022/11/13 08:42:59;;;;;;;;;;;19.20;99.90;;;;;;5072142;28;19952;-63
2022/11/13 08:45:46;;;;;;;;;;;19.20;99.90;;;;;;5065770;28;20374;-65
2022/11/13 08:48:31;;;;;;;;;;;19.20;99.90;;;;;;5071592;28;19936;-70
2022/11/13 08:51:17;;;;;;;;;;;19.20;99.90;;;;;;5068630;28;20407;-66
2022/11/13 08:54:03;;;;;;;;;;;19.10;99.90;;;;;;5068376;28;19936;-64
2022/11/13 08:56:48;;;;;;;;;;;19.10;99.90;;;;;;5069506;28;19935;-65
2022/11/13 08:59:40;;;;;;;;;;;19.10;99.90;;;;;;5075684;28;19936;-65
2022/11/13 09:02:26;;;;;;;;;;;19.10;99.90;;;;;;5072852;28;19944;-64
2022/11/13 09:05:11;;;;;;;;;;;19.20;99.90;;;;;;5068985;28;19932;-68
2022/11/13 09:07:58;;;;;;;;;;;19.20;99.90;;;;;;5079415;28;19931;-62
2022/11/13 09:10:44;;;;;;;;;;;19.30;99.90;;;;;;5071092;28;20391;-65
2022/11/13 09:13:30;;;;;;;;;;;19.40;99.90;;;;;;5057808;28;19950;-66
2022/11/13 09:16:16;;;;;;;;;;;19.60;99.90;;;;;;5062011;28;20192;-66
2022/11/13 09:19:02;;;;;;;;;;;19.70;99.90;;;;;;5068855;28;19932;-66
2022/11/13 09:21:49;;;;;;;;;;;19.80;99.90;;;;;;5055986;28;19934;-67
2022/11/13 09:24:35;;;;;;;;;;;20.00;99.90;;;;;;5070850;28;19936;-64
2022/11/13 09:27:20;;;;;;;;;;;20.10;99.90;;;;;;5072097;28;20410;-58
2022/11/13 09:30:06;;;;;;;;;;;20.20;99.90;;;;;;5071167;28;20276;-59
2022/11/13 09:32:53;;;;;;;;;;;20.20;99.90;;;;;;5071783;28;19939;-59
2022/11/13 09:35:38;;;;;;;;;;;20.30;99.90;;;;;;5056589;28;19940;-60
2022/11/13 09:38:24;;;;;;;;;;;20.30;99.90;;;;;;5074137;28;20414;-58
2022/11/13 09:41:12;;;;;;;;;;;20.20;99.90;;;;;;5066940;28;19931;-60
2022/11/13 09:44:02;;;;;;;;;;;20.20;99.90;;;;;;5069089;28;19935;-55
2022/11/13 09:46:58;;;;;;;;;;;20.20;99.90;;;;;;5073326;28;19952;-61
2022/11/13 09:49:45;;;;;;;;;;;20.10;99.90;;;;;;5070813;28;19939;-59
2022/11/13 09:52:36;;;;;;;;;;;20.10;99.90;;;;;;5068828;28;19971;-60
2022/11/13 09:55:24;;;;;;;;;;;20.10;99.90;;;;;;5064874;28;19951;-58
2022/11/13 09:58:16;;;;;;;;;;;20.10;99.90;;;;;;5070544;28;20318;-57
2022/11/13 10:01:03;;;;;;;;;;;20.10;99.90;;;;;;5072411;28;19931;-56
2022/11/13 10:03:51;;;;;;;;;;;20.00;99.90;;;;;;5073119;28;19936;-56
2022/11/13 10:06:51;;;;;;;;;;;20.00;99.90;;;;;;5072854;28;19935;-56
2022/11/13 10:09:57;;;;;;;;;;;19.90;99.90;;;;;;5071893;28;19936;-56
2022/11/13 10:12:43;;;;;;;;;;;19.90;99.90;;;;;;5074448;28;19931;-57
2022/11/13 10:15:29;;;;;;;;;;;19.90;99.90;;;;;;5078080;28;20015;-56
2022/11/13 10:18:25;;;;;;;;;;;19.90;99.90;;;;;;5077891;28;19947;-57
2022/11/13 10:21:14;;;;;;;;;;;19.80;99.90;;;;;;5069541;28;19936;-55
2022/11/13 10:24:02;;;;;;;;;;;19.90;99.90;;;;;;5070102;28;20003;-56
2022/11/13 10:26:50;;;;;;;;;;;19.90;99.90;;;;;;5059578;28;20214;-53
2022/11/13 10:29:36;;;;;;;;;;;20.00;99.90;;;;;;5064968;28;19935;-55
2022/11/13 10:32:23;;;;;;;;;;;19.90;99.90;;;;;;5053057;28;20018;-54
2022/11/13 10:35:25;;;;;;;;;;;19.90;99.90;;;;;;5067576;28;21439;-55
2022/11/13 10:38:25;;;;;;;;;;;19.90;99.90;;;;;;5072032;28;19978;-60
2022/11/13 10:41:11;;;;;;;;;;;19.90;99.90;;;;;;5062035;28;20312;-59
2022/11/13 10:43:57;;;;;;;;;;;19.90;99.90;;;;;;5068571;28;19935;-55
2022/11/13 10:46:43;;;;;;;;;;;19.80;99.90;;;;;;5056664;28;19931;-54
2022/11/13 10:49:29;;;;;;;;;;;19.70;99.90;;;;;;5072244;28;19951;-58
2022/11/13 10:52:22;;;;;;;;;;;19.70;99.90;;;;;;5054515;28;19940;-59
2022/11/13 10:55:15;;;;;;;;;;;19.70;99.90;;;;;;5065300;28;19935;-54
2022/11/13 10:58:02;;;;;;;;;;;19.70;99.90;;;;;;5067948;28;20313;-58
2022/11/13 11:00:48;;;;;;;;;;;19.70;99.90;;;;;;5063935;28;20415;-56
2022/11/13 11:03:34;;;;;;;;;;;19.70;99.90;;;;;;5067560;28;19936;-57
2022/11/13 11:06:30;;;;;;;;;;;19.70;99.90;;;;;;5069346;28;19936;-56
2022/11/13 11:09:37;;;;;;;;;;;19.70;99.90;;;;;;5072180;28;20387;-57
2022/11/13 11:12:23;;;;;;;;;;;19.80;99.90;;;;;;5070280;28;19936;-56
2022/11/13 11:15:21;;;;;;;;;;;19.90;99.90;;;;;;5064007;28;20320;-58
2022/11/13 11:18:18;;;;;;;;;;;19.90;99.90;;;;;;5063836;28;19936;-58
2022/11/13 11:21:07;;;;;;;;;;;20.00;99.90;;;;;;5071929;28;19936;-56
2022/11/13 11:24:05;;;;;;;;;;;20.00;99.90;;;;;;5067838;28;19936;-59
2022/11/13 11:27:03;;;;;;;;;;;20.00;99.90;;;;;;5068292;28;19932;-61
2022/11/13 11:29:59;;;;;;;;;;;20.00;99.90;;;;;;5068573;28;19936;-55
2022/11/13 11:32:49;;;;;;;;;;;20.10;99.90;;;;;;5068098;28;19940;-61
2022/11/13 11:35:40;;;;;;;;;;;20.20;99.90;;;;;;5067439;28;19963;-54
2022/11/13 11:38:45;;;;;;;;;;;20.20;99.90;;;;;;5074625;28;20411;-58
2022/11/13 11:41:41;;;;;;;;;;;20.20;99.90;;;;;;5079447;28;20054;-58
2022/11/13 11:44:36;;;;;;;;;;;20.20;99.90;;;;;;5059143;28;19931;-54
2022/11/13 11:47:22;;;;;;;;;;;20.20;99.90;;;;;;5081687;28;19948;-59
2022/11/13 11:50:11;;;;;;;;;;;20.20;99.90;;;;;;5075175;28;19935;-59
2022/11/13 11:53:09;;;;;;;;;;;20.20;99.90;;;;;;5073148;28;19931;-54
2022/11/13 11:56:10;;;;;;;;;;;20.30;99.90;;;;;;5065593;28;19935;-57
2022/11/13 11:59:11;;;;;;;;;;;20.30;99.90;;;;;;5077099;28;20051;-61
2022/11/13 12:02:27;;;;;;;;;;;20.40;99.90;;;;;;5061361;28;20311;-59
2022/11/13 12:05:28;;;;;;;;;;;20.40;99.90;;;;;;5071541;28;19936;-58
2022/11/13 12:08:33;;;;;;;;;;;20.50;99.90;;;;;;5072119;28;19939;-59
2022/11/13 12:11:26;;;;;;;;;;;20.50;99.90;;;;;;5076603;28;20338;-59
2022/11/13 12:14:39;;;;;;;;;;;20.50;99.90;;;;;;5077005;28;19955;-57
2022/11/13 12:17:43;;;;;;;;;;;20.40;99.90;;;;;;5078499;28;19950;-56
2022/11/13 12:20:39;;;;;;;;;;;20.40;99.90;;;;;;5081675;28;20386;-56
2022/11/13 12:23:25;;;;;;;;;;;20.40;99.90;;;;;;5077612;28;19936;-57
2022/11/13 12:26:16;;;;;;;;;;;20.40;99.90;;;;;;5068662;28;20040;-53
2022/11/13 12:29:25;;;;;;;;;;;20.30;99.90;;;;;;5073781;28;20042;-58
2022/11/13 12:32:31;;;;;;;;;;;20.30;99.90;;;;;;5049859;28;19929;-60
2022/11/13 12:35:18;;;;;;;;;;;20.30;99.90;;;;;;5071199;28;19939;-61
2022/11/13 12:38:07;;;;;;;;;;;20.40;99.90;;;;;;5059940;28;20316;-60
2022/11/13 12:41:31;;;;;;;;;;;20.40;99.90;;;;;;5076373;28;19943;-56
2022/11/13 12:44:24;;;;;;;;;;;20.40;99.90;;;;;;4972293;28;20374;-60
2022/11/13 12:47:11;;;;;;;;;;;20.40;99.90;;;;;;4973711;28;19937;-56
2022/11/13 12:50:00;;;;;;;;;;;20.40;99.90;;;;;;4975517;28;19937;-60
2022/11/13 12:53:06;;;;;;;;;;;20.40;99.90;;;;;;4963927;28;19977;-61
2022/11/13 12:55:58;;;;;;;;;;;20.30;99.90;;;;;;4972372;28;20033;-59
2022/11/13 12:58:55;;;;;;;;;;;20.40;99.90;;;;;;4975584;28;19937;-59
2022/11/13 13:02:03;;;;;;;;;;;20.40;99.90;;;;;;4967672;28;19933;-60
2022/11/13 13:04:57;;;;;;;;;;;20.30;99.90;;;;;;4969047;28;20421;-63
2022/11/13 13:07:58;;;;;;;;;;;20.30;99.90;;;;;;4973503;28;20097;-59
2022/11/13 13:10:49;;;;;;;;;;;20.30;99.90;;;;;;4971802;28;19990;-58
2022/11/13 13:14:04;;;;;;;;;;;20.30;99.90;;;;;;4968128;28;19964;-60
2022/11/13 13:16:49;;;;;;;;;;;20.20;99.90;;;;;;5060422;28;19943;-60
2022/11/13 13:19:35;;;;;;;;;;;20.20;99.90;;;;;;5078533;28;19952;-59
2022/11/13 13:22:25;;;;;;;;;;;20.10;99.90;;;;;;5068816;28;19931;-63
2022/11/13 13:25:23;;;;;;;;;;;20.10;99.90;;;;;;5071402;28;19931;-61
2022/11/13 13:28:09;;;;;;;;;;;20.00;99.90;;;;;;5074248;28;19947;-65
2022/11/13 13:31:04;;;;;;;;;;;19.90;99.90;;;;;;5072974;28;19948;-62
2022/11/13 13:33:52;;;;;;;;;;;19.90;99.90;;;;;;5064486;28;19936;-63
2022/11/13 13:36:44;;;;;;;;;;;19.80;99.90;;;;;;5064203;28;19935;-64
2022/11/13 13:39:32;;;;;;;;;;;19.70;99.90;;;;;;5075293;28;19936;-66
2022/11/13 13:42:42;;;;;;;;;;;19.80;99.90;;;;;;5074276;28;19935;-64
2022/11/13 13:46:01;;;;;;;;;;;19.80;99.90;;;;;;5070711;28;19935;-64
2022/11/13 13:48:47;;;;;;;;;;;19.90;99.90;;;;;;5033013;28;20319;-64
2022/11/13 13:51:38;;;;;;;;;;;20.00;99.90;;;;;;5072253;28;19998;-63
2022/11/13 13:54:25;;;;;;;;;;;20.00;99.90;;;;;;5068264;28;19935;-65
2022/11/13 13:57:13;;;;;;;;;;;20.10;99.90;;;;;;5075988;28;19943;-65
2022/11/13 13:59:59;;;;;;;;;;;20.20;99.90;;;;;;5074100;28;19947;-64
2022/11/13 14:02:45;;;;;;;;;;;20.20;99.90;;;;;;5070599;28;20007;-65
2022/11/13 14:05:33;;;;;;;;;;;20.30;99.90;;;;;;5070586;28;19936;-64
2022/11/13 14:08:20;;;;;;;;;;;20.30;99.90;;;;;;5073265;28;20553;-66
2022/11/13 14:11:18;;;;;;;;;;;20.30;99.90;;;;;;5070743;28;20294;-63
2022/11/13 14:14:16;;;;;;;;;;;20.30;99.90;;;;;;5074655;28;19928;-66
2022/11/13 14:17:02;;;;;;;;;;;20.20;99.90;;;;;;5074011;28;19940;-66
2022/11/13 14:19:52;;;;;;;;;;;20.20;99.90;;;;;;5068198;28;19932;-64
2022/11/13 14:22:39;;;;;;;;;;;20.20;99.90;;;;;;5067885;28;19951;-64
2022/11/13 14:25:26;;;;;;;;;;;20.20;99.90;;;;;;5069846;28;19934;-63
2022/11/13 14:28:19;;;;;;;;;;;20.10;99.90;;;;;;5073422;28;20023;-63
2022/11/13 14:31:06;;;;;;;;;;;20.10;99.90;;;;;;5064185;28;19947;-63
2022/11/13 14:33:52;;;;;;;;;;;20.10;99.90;;;;;;5063129;28;19936;-64
2022/11/13 14:36:38;;;;;;;;;;;20.10;99.90;;;;;;5060918;28;19935;-62
2022/11/13 14:39:32;;;;;;;;;;;20.00;99.90;;;;;;5062442;28;19936;-65
2022/11/13 14:42:28;;;;;;;;;;;20.00;99.90;;;;;;5056397;28;19932;-65
2022/11/13 14:45:19;;;;;;;;;;;20.00;99.90;;;;;;5068044;28;20384;-62
2022/11/13 14:48:25;;;;;;;;;;;19.90;99.90;;;;;;5070967;28;19936;-64
2022/11/13 14:51:22;;;;;;;;;;;19.90;99.90;;;;;;5067428;28;19935;-65
2022/11/13 14:54:25;;;;;;;;;;;19.90;99.90;;;;;;5059559;28;20319;-65
2022/11/13 14:57:12;;;;;;;;;;;19.90;99.90;;;;;;5064852;28;20277;-65
2022/11/13 15:00:08;;;;;;;;;;;19.90;99.90;;;;;;5072585;28;19947;-64
2022/11/13 15:02:54;;;;;;;;;;;19.80;99.90;;;;;;5072417;28;19936;-64
2022/11/13 15:05:40;;;;;;;;;;;19.80;99.90;;;;;;5076642;28;20352;-63
2022/11/13 15:08:26;;;;;;;;;;;19.80;99.90;;;;;;5080133;28;19939;-61
2022/11/13 15:11:17;;;;;;;;;;;19.80;99.90;;;;;;5082746;28;19932;-64
2022/11/13 15:14:08;;;;;;;;;;;19.70;99.90;;;;;;5079697;28;19951;-65
2022/11/13 15:16:54;;;;;;;;;;;19.80;99.90;;;;;;5073584;28;19959;-64
2022/11/13 15:19:39;;;;;;;;;;;19.80;99.90;;;;;;5076507;28;19929;-63
2022/11/13 15:22:25;;;;;;;;;;;19.90;99.90;;;;;;5060360;28;19932;-65
2022/11/13 15:25:14;;;;;;;;;;;20.00;99.90;;;;;;5068616;28;19924;-66
2022/11/13 15:28:00;;;;;;;;;;;20.10;99.90;;;;;;5075134;28;20458;-64
2022/11/13 15:30:46;;;;;;;;;;;20.20;99.90;;;;;;5065267;28;20388;-70
2022/11/13 15:33:32;;;;;;;;;;;20.30;99.90;;;;;;5072754;28;20299;-67
2022/11/13 15:36:17;;;;;;;;;;;20.30;99.90;;;;;;5066625;28;19924;-67
2022/11/13 15:39:03;;;;;;;;;;;20.30;99.90;;;;;;5073299;28;19932;-67
2022/11/13 15:41:51;;;;;;;;;;;20.30;99.90;;;;;;5075348;28;19935;-70
2022/11/13 15:44:37;;;;;;;;;;;20.30;99.90;;;;;;5063596;22;19928;-60
2022/11/13 15:47:28;;;;;;;;;;;20.30;99.90;;;;;;5048984;28;20004;-58
2022/11/13 15:50:14;;;;;;;;;;;20.30;99.90;;;;;;5053644;28;20400;-57
2022/11/13 15:53:02;;;;;;;;;;;20.30;99.90;;;;;;5047881;28;20545;-61
2022/11/13 15:55:50;;;;;;;;;;;20.30;99.90;;;;;;5053088;28;19940;-62
2022/11/13 15:58:36;;;;;;;;;;;20.30;99.90;;;;;;5041689;28;19932;-61
2022/11/13 16:01:21;;;;;;;;;;;20.40;99.90;;;;;;5052645;28;20434;-67
2022/11/13 16:04:07;;;;;;;;;;;20.40;99.90;;;;;;5046151;28;19935;-60
2022/11/13 16:06:53;;;;;;;;;;;20.40;99.90;;;;;;5054426;28;19932;-62
2022/11/13 16:09:39;;;;;;;;;;;20.40;99.90;;;;;;5045591;28;19929;-64
2022/11/13 16:12:24;;;;;;;;;;;20.40;99.90;;;;;;5055804;28;19929;-58
2022/11/13 16:15:15;;;;;;;;;;;20.40;99.90;;;;;;5053847;28;19929;-60
2022/11/13 16:18:01;;;;;;;;;;;20.40;99.90;;;;;;5048372;28;19935;-61
2022/11/13 16:20:46;;;;;;;;;;;20.40;99.90;;;;;;5048135;28;19935;-61
2022/11/13 16:23:32;;;;;;;;;;;20.30;99.90;;;;;;5046164;28;19932;-63